• Join FlightAware (Why Join?)
  • Login
  • US Flag 
04:15AM EDT


 

Airport Tracker/Info


-or-


 

Live Flight TrackerFlight Track Log ✈ UAL4462 ✈ 07-May-2013 ✈ KOMA - KIAH

Flight Track Log - Related Links

Times and Time Zones

All times are in EDT time to prevent confusion due to time zone crossing. See the UAL4462 flight status page for this flight to view local times or setup timezone preferences in your user account.

Time Position Orientation Groundspeed Altitude Reporting Facility
EDT Latitude Longitude Course Direction KTS MPH feet Rate Location/Type
12:23PM 41.2861 -95.8844 201° Southwest 184 212 1,600  Level Minneapolis Center
12:24PM 41.2128 -95.8819 179° South 219 252 4,100 2,040 Climbing Minneapolis Center
12:26PM 41.0416 -95.7905 203° Southwest  Level FlightAware Approximate
12:26PM 41.1422 -95.8903 185° South 261 300 6,400  Level Minneapolis Center
12:27PM 40.9478 -95.8459 207° Southwest  Level FlightAware Approximate
12:27PM 41.0667 -95.8972 184° South 242 278 8,800  Level Minneapolis Center
12:28PM 40.8560 -95.9072 207° Southwest  Level FlightAware Approximate
12:28PM 40.9914 -95.9067 185° South 259 298 10,800  Level Minneapolis Center
12:29PM 40.7559 -95.9638 201° Southwest  Level FlightAware Approximate
12:29PM 40.8903 -95.9208 186° South 293 337 11,500  Level Minneapolis Center
12:30PM 40.7947 -95.9342 186° South 332 382 12,900 1,260 Climbing Minneapolis Center
12:31PM 40.6992 -95.9472 186° South 343 395 14,200 1,140 Climbing Minneapolis Center
12:32PM 40.6014 -95.9603 186° South 348 400 15,300 1,080 Climbing Minneapolis Center
12:33PM 40.5014 -95.9736 186° South 358 412 16,500 1,020 Climbing Minneapolis Center
12:34PM 40.3997 -95.9883 186° South 362 417 17,500 900 Climbing Minneapolis Center
12:35PM 40.2964 -96.0003 185° South 370 426 18,400 1,020 Climbing Minneapolis Center
12:36PM 40.1694 -96.0192 186° South 378 435 19,700 1,080 Climbing Minneapolis Center
12:37PM 40.0619 -96.0322 185° South 384 442 20,700 960 Climbing Minneapolis Center
12:38PM 39.9539 -96.0472 186° South 388 447 21,700 960 Climbing Minneapolis Center
12:39PM 39.8647 -96.0597 186° South 395 455 22,500 900 Climbing Kansas City Center
12:40PM 39.7603 -96.0744 186° South 395 455 23,400 960 Climbing Kansas City Center
12:41PM 39.6375 -96.0903 186° South 397 457 24,500 960 Climbing Kansas City Center
12:42PM 39.5325 -96.1039 186° South 397 457 25,500 960 Climbing Kansas City Center
12:43PM 39.4119 -96.1203 186° South 392 451 26,600 960 Climbing Kansas City Center
12:44PM 39.3086 -96.1339 186° South 391 450 27,500 960 Climbing Kansas City Center
12:45PM 39.1903 -96.1486 186° South 385 443 28,600 960 Climbing Kansas City Center
12:46PM 39.0894 -96.1622 186° South 383 441 29,500 960 Climbing Kansas City Center
12:47PM 38.9725 -96.1764 185° South 379 436 30,600 960 Climbing Kansas City Center
12:48PM 38.8714 -96.1894 186° South 380 437 31,500 960 Climbing Kansas City Center
12:49PM 38.7525 -96.2042 186° South 384 442 32,600 960 Climbing Kansas City Center
12:50PM 38.6525 -96.2178 186° South 380 437 33,600 960 Climbing Kansas City Center
12:51PM 38.5353 -96.2339 186° South 379 436 34,700 960 Climbing Kansas City Center
12:52PM 38.4353 -96.2456 185° South 377 434 35,600 600 Climbing Kansas City Center
12:53PM 38.3194 -96.2606 186° South 374 430 36,000 180 Climbing Kansas City Center
12:54PM 38.2144 -96.2747 186° South 393 452 36,000  Level Kansas City Center
12:55PM 38.1053 -96.2883 186° South 405 466 36,000  Level Kansas City Center
12:56PM 37.9883 -96.3017 185° South 419 482 36,000  Level Kansas City Center
12:58PM 37.8683 -96.3169 186° South 429 494 36,000  Level Kansas City Center
12:59PM 37.7239 -96.3342 185° South 431 496 36,000  Level Kansas City Center
01:00PM 37.6153 -96.3486 186° South 427 491 36,000  Level Kansas City Center
01:01PM 37.4494 -96.3686 185° South 427 491 36,000  Level Kansas City Center
01:02PM 37.3308 -96.3833 186° South 428 493 36,000  Level Kansas City Center
01:03PM 37.2128 -96.3981 186° South 427 491 36,000  Level Kansas City Center
01:04PM 37.0939 -96.4128 186° South 428 493 36,000  Level Kansas City Center
01:05PM 36.9742 -96.4281 186° South 431 496 36,000  Level Kansas City Center
01:06PM 36.8539 -96.4428 186° South 433 498 36,000  Level Kansas City Center
01:07PM 36.7122 -96.4597 185° South 430 495 36,000  Level Kansas City Center
01:08PM 36.5914 -96.4750 186° South 434 499 36,000  Level Kansas City Center
01:09PM 36.4694 -96.4903 186° South 439 505 36,000  Level Kansas City Center
01:10PM 36.3467 -96.5044 185° South 442 509 36,000  Level Kansas City Center
01:11PM 36.2222 -96.5192 185° South 446 513 36,000  Level Kansas City Center
01:12PM 36.0989 -96.5336 185° South 446 513 36,000  Level Kansas City Center
01:13PM 35.9711 -96.5503 186° South 446 513 36,000  Level Kansas City Center
01:14PM 35.8464 -96.5647 185° South 447 514 36,000  Level Kansas City Center
01:15PM 35.6958 -96.5831 186° South 450 518 36,000  Level Kansas City Center
01:16PM 35.5700 -96.5978 185° South 452 520 36,000  Level Kansas City Center
01:17PM 35.4436 -96.6122 185° South 453 521 36,000  Level Kansas City Center
01:18PM 35.3164 -96.6269 185° South 454 522 36,000  Level Kansas City Center
01:19PM 35.1906 -96.6411 185° South 453 521 36,000  Level Kansas City Center
01:21PM 35.0264 -96.6606 186° South 461 531 36,000  Level Fort Worth Center
01:22PM 34.9014 -96.6767 186° South 461 531 36,000  Level Fort Worth Center
01:23PM 34.7742 -96.6931 186° South 461 531 36,000  Level Fort Worth Center
01:24PM 34.6472 -96.7067 185° South 461 531 36,000  Level Fort Worth Center
01:25PM 34.5219 -96.7203 185° South 461 531 36,000  Level Fort Worth Center
01:26PM 34.3947 -96.7392 187° South 461 531 36,000  Level Fort Worth Center
01:27PM 34.2717 -96.7500 184° South 461 531 36,000  Level Fort Worth Center
01:28PM 34.1444 -96.7636 185° South 461 531 36,000  Level Fort Worth Center
01:29PM 34.0194 -96.7794 186° South 461 531 36,000  Level Fort Worth Center
01:30PM 33.8942 -96.7928 185° South 461 531 36,000  Level Fort Worth Center
01:31PM 33.7733 -96.8089 186° South 453 521 36,000  Level Fort Worth Center
01:32PM 33.6606 -96.8194 184° South 448 516 36,000  Level Fort Worth Center
01:33PM 33.5208 -96.8356 185° South 453 521 36,000  Level Fort Worth Center
01:34PM 33.4103 -96.8486 186° South 458 527 36,000  Level Fort Worth Center
01:35PM 33.2706 -96.8644 185° South 458 527 36,000  Level Fort Worth Center
01:36PM 33.1536 -96.8503 174° South 458 527 36,000  Level Fort Worth Center
01:37PM 33.0158 -96.8239 171° South 463 533 36,000  Level Fort Worth Center
01:38PM 32.8861 -96.7975 170° South 468 539 36,000  Level Fort Worth Center
01:39PM 32.7586 -96.7686 169° South 468 539 36,000  Level Fort Worth Center
01:40PM 32.6292 -96.7425 170° South 469 540 36,000  Level Fort Worth Center
01:41PM 32.5036 -96.7161 170° South 469 540 36,000  Level Fort Worth Center
01:42PM 32.3761 -96.6878 169° South 469 540 36,000  Level Fort Worth Center
01:43PM 32.2508 -96.6642 171° South 469 540 36,000 -120 Level Fort Worth Center
01:44PM 32.1253 -96.6383 170° South 463 533 35,800 -840 Descending Fort Worth Center
01:45PM 32.0000 -96.6122 170° South 463 533 34,400 -1,500 Descending Fort Worth Center
01:46PM 31.8786 -96.5889 171° South 463 533 32,900 -1,260 Descending Fort Worth Center
01:47PM 31.6728 -96.5450 170° South 443 510 31,000 -720 Descending Houston Center
01:48PM 31.5481 -96.5192 170° South 450 518 31,000 -180 Level Houston Center
01:49PM 31.4247 -96.4786 164° South 456 525 30,700 -720 Descending Houston Center
01:50PM 31.2975 -96.4306 162° South 471 542 29,600 -1,860 Descending Houston Center
01:51PM 31.1522 -96.3769 162° South 463 533 26,900 -2,460 Descending Houston Center
01:53PM 31.0317 -96.3139 156° South 473 544 24,600 -1,440 Descending Houston Center
01:54PM 30.9160 -96.2873 168° South  Level FlightAware Approximate
01:54PM 30.9208 -96.2267 168° South 472 543 24,000  Level Houston Center
01:55PM 30.8122 -96.1411 146° Southeast 467 537 21,700 -2,520 Descending Houston Center
01:56PM 30.7056 -96.0581 146° Southeast 456 525 18,800 -3,120 Descending Houston Center
01:57PM 30.6011 -95.9756 146° Southeast 429 494 15,300 -3,300 Descending Houston Center
01:57PM 30.5253 -95.9200 148° Southeast 428 493 13,100 -2,640 Descending Houston Center
01:58PM 30.5036 -95.9000 142° Southeast 422 486 12,600 -1,140 Descending Houston Center
01:58PM 30.4325 -95.8411 144° Southeast 393 452 12,000 -720 Descending Houston Center
01:59PM 30.4153 -95.8239 139° Southeast 401 461 11,900 -540 Descending Houston Center
01:59PM 30.3514 -95.7561 138° Southeast 397 457 11,500 -540 Descending Houston Center
02:00PM 30.3339 -95.7383 139° Southeast 396 456 11,400 -780 Descending Houston Center
02:00PM 30.2753 -95.6781 138° Southeast 391 450 10,800 -1,020 Descending Houston Center
02:01PM 30.2550 -95.6539 134° Southeast 390 449 10,400 -1,440 Descending Houston Center
02:01PM 30.2033 -95.6019 139° Southeast 294 338 9,200 -1,560 Descending Houston Center
02:02PM 30.1933 -95.5903 135° Southeast 311 358 8,800 -1,920 Descending Houston Center
02:02PM 30.1408 -95.5369 139° Southeast 288 331 7,300 -1,980 Descending Houston Center
02:03PM 30.1217 -95.5161 137° Southeast 291 335 6,800 -1,440 Descending Houston Center
02:03PM 30.1053 -95.4686 112° Southeast 278 320 6,000 -900 Descending Houston Center
02:04PM 30.1072 -95.4314 87° East 286 329 5,900  Descending Houston Center
02:05PM 30.1064 -95.3647 91° East 278 320 6,000 60 Climbing Houston Center
02:05PM 30.1069 -95.3439 88° East 274 315 6,000 -120 Level Houston Center
02:06PM 30.1053 -95.2828 92° East 271 312 5,900 -720 Descending Houston Center
02:06PM 30.1072 -95.2558 85° East 274 315 5,300 -1,740 Descending Houston Center
02:07PM 30.1050 -95.1886 92° East 265 305 4,000 -1,560 Descending Houston Center
02:07PM 30.1064 -95.1697 85° East 271 312 3,700 -1,080 Descending Houston Center
02:08PM 30.0775 -95.1194 124° Southeast 246 283 2,900 -720 Descending Houston Center
02:08PM 30.0708 -95.1200 184° South 255 293 3,000 60 Climbing Houston Center
02:09PM 30.0211 -95.1458 204° Southwest 233 268 3,000 -120 Level Houston Center
02:09PM 30.0122 -95.1644 241° Southwest 233 268 2,900 -300 Descending Houston Center